sensor_id;sensor_type;location;lat;lon;timestamp;P1;durP1;ratioP1;P2;durP2;ratioP2
6832;SDS011;3454;42.654;23.378;2022-10-16T00:01:14;13.63;;;8.23;;
6832;SDS011;3454;42.654;23.378;2022-10-16T00:03:41;12.97;;;8.73;;
6832;SDS011;3454;42.654;23.378;2022-10-16T00:06:08;12.27;;;9.07;;
6832;SDS011;3454;42.654;23.378;2022-10-16T00:08:34;16.50;;;9.00;;
6832;SDS011;3454;42.654;23.378;2022-10-16T00:11:05;13.07;;;8.83;;
6832;SDS011;3454;42.654;23.378;2022-10-16T00:13:33;17.10;;;9.90;;
6832;SDS011;3454;42.654;23.378;2022-10-16T00:16:00;15.07;;;9.17;;
6832;SDS011;3454;42.654;23.378;2022-10-16T00:18:27;17.03;;;9.37;;
6832;SDS011;3454;42.654;23.378;2022-10-16T00:20:53;13.47;;;8.23;;
6832;SDS011;3454;42.654;23.378;2022-10-16T00:23:19;11.67;;;9.33;;
6832;SDS011;3454;42.654;23.378;2022-10-16T00:25:53;14.50;;;9.87;;
6832;SDS011;3454;42.654;23.378;2022-10-16T00:28:22;14.37;;;9.07;;
6832;SDS011;3454;42.654;23.378;2022-10-16T00:30:48;13.53;;;9.27;;
6832;SDS011;3454;42.654;23.378;2022-10-16T00:33:14;13.60;;;8.63;;
6832;SDS011;3454;42.654;23.378;2022-10-16T00:35:39;11.63;;;9.07;;
6832;SDS011;3454;42.654;23.378;2022-10-16T00:38:05;13.60;;;8.50;;
6832;SDS011;3454;42.654;23.378;2022-10-16T00:40:30;14.77;;;8.63;;
6832;SDS011;3454;42.654;23.378;2022-10-16T00:42:56;14.90;;;8.00;;
6832;SDS011;3454;42.654;23.378;2022-10-16T00:45:22;11.90;;;8.33;;
6832;SDS011;3454;42.654;23.378;2022-10-16T00:47:47;15.60;;;9.07;;
6832;SDS011;3454;42.654;23.378;2022-10-16T00:50:32;13.33;;;8.17;;
6832;SDS011;3454;42.654;23.378;2022-10-16T00:53:00;14.63;;;7.73;;
6832;SDS011;3454;42.654;23.378;2022-10-16T00:55:27;11.77;;;8.40;;
6832;SDS011;3454;42.654;23.378;2022-10-16T00:57:55;10.27;;;8.27;;
6832;SDS011;3454;42.654;23.378;2022-10-16T01:00:22;14.60;;;8.07;;
6832;SDS011;3454;42.654;23.378;2022-10-16T01:02:56;13.13;;;7.93;;
6832;SDS011;3454;42.654;23.378;2022-10-16T01:05:30;11.10;;;7.67;;
6832;SDS011;3454;42.654;23.378;2022-10-16T01:08:08;11.40;;;7.53;;
6832;SDS011;3454;42.654;23.378;2022-10-16T01:10:48;10.27;;;7.43;;
6832;SDS011;3454;42.654;23.378;2022-10-16T01:13:30;10.17;;;7.83;;
6832;SDS011;3454;42.654;23.378;2022-10-16T01:16:05;13.03;;;7.80;;
6832;SDS011;3454;42.654;23.378;2022-10-16T01:18:49;11.17;;;7.33;;
6832;SDS011;3454;42.654;23.378;2022-10-16T01:21:28;12.43;;;8.10;;
6832;SDS011;3454;42.654;23.378;2022-10-16T01:27:13;12.63;;;8.70;;
6832;SDS011;3454;42.654;23.378;2022-10-16T01:35:11;8.00;;;5.97;;
6832;SDS011;3454;42.654;23.378;2022-10-16T01:37:46;5.23;;;4.37;;
6832;SDS011;3454;42.654;23.378;2022-10-16T01:40:14;7.13;;;4.70;;
6832;SDS011;3454;42.654;23.378;2022-10-16T01:42:46;5.27;;;3.80;;
6832;SDS011;3454;42.654;23.378;2022-10-16T01:45:20;6.07;;;4.13;;
6832;SDS011;3454;42.654;23.378;2022-10-16T01:47:47;4.80;;;3.70;;
6832;SDS011;3454;42.654;23.378;2022-10-16T01:50:15;4.10;;;3.30;;
6832;SDS011;3454;42.654;23.378;2022-10-16T01:52:44;6.80;;;3.93;;
6832;SDS011;3454;42.654;23.378;2022-10-16T01:55:12;6.07;;;3.77;;
6832;SDS011;3454;42.654;23.378;2022-10-16T01:57:44;8.93;;;3.70;;
6832;SDS011;3454;42.654;23.378;2022-10-16T02:00:13;4.70;;;3.90;;
6832;SDS011;3454;42.654;23.378;2022-10-16T02:02:41;5.83;;;3.30;;
6832;SDS011;3454;42.654;23.378;2022-10-16T02:07:56;3.93;;;3.50;;
6832;SDS011;3454;42.654;23.378;2022-10-16T02:10:22;8.37;;;4.00;;
6832;SDS011;3454;42.654;23.378;2022-10-16T02:13:00;4.93;;;3.73;;
6832;SDS011;3454;42.654;23.378;2022-10-16T02:15:34;4.77;;;3.50;;
6832;SDS011;3454;42.654;23.378;2022-10-16T02:17:59;6.83;;;3.90;;
6832;SDS011;3454;42.654;23.378;2022-10-16T02:20:27;5.20;;;3.70;;
6832;SDS011;3454;42.654;23.378;2022-10-16T02:22:57;4.67;;;3.77;;
6832;SDS011;3454;42.654;23.378;2022-10-16T02:25:25;6.37;;;3.53;;
6832;SDS011;3454;42.654;23.378;2022-10-16T02:33:20;7.07;;;4.97;;
6832;SDS011;3454;42.654;23.378;2022-10-16T02:35:47;6.57;;;3.30;;
6832;SDS011;3454;42.654;23.378;2022-10-16T02:38:15;4.17;;;3.27;;
6832;SDS011;3454;42.654;23.378;2022-10-16T02:40:42;5.50;;;4.27;;
6832;SDS011;3454;42.654;23.378;2022-10-16T02:43:09;4.87;;;3.60;;
6832;SDS011;3454;42.654;23.378;2022-10-16T02:45:34;4.60;;;3.27;;
6832;SDS011;3454;42.654;23.378;2022-10-16T02:48:01;4.10;;;3.70;;
6832;SDS011;3454;42.654;23.378;2022-10-16T02:50:26;5.23;;;3.57;;
6832;SDS011;3454;42.654;23.378;2022-10-16T02:52:52;5.20;;;3.90;;
6832;SDS011;3454;42.654;23.378;2022-10-16T02:55:17;4.33;;;3.63;;
6832;SDS011;3454;42.654;23.378;2022-10-16T02:57:42;5.40;;;3.90;;
6832;SDS011;3454;42.654;23.378;2022-10-16T03:00:12;6.73;;;3.57;;
6832;SDS011;3454;42.654;23.378;2022-10-16T03:02:39;6.23;;;3.90;;
6832;SDS011;3454;42.654;23.378;2022-10-16T03:05:04;8.10;;;4.60;;
6832;SDS011;3454;42.654;23.378;2022-10-16T03:07:30;19.30;;;12.50;;
6832;SDS011;3454;42.654;23.378;2022-10-16T03:09:56;8.57;;;6.20;;
6832;SDS011;3454;42.654;23.378;2022-10-16T03:12:21;8.00;;;4.30;;
6832;SDS011;3454;42.654;23.378;2022-10-16T03:14:47;6.10;;;4.63;;
6832;SDS011;3454;42.654;23.378;2022-10-16T03:17:12;5.20;;;4.43;;
6832;SDS011;3454;42.654;23.378;2022-10-16T03:19:38;4.93;;;4.30;;
6832;SDS011;3454;42.654;23.378;2022-10-16T03:22:03;6.87;;;4.50;;
6832;SDS011;3454;42.654;23.378;2022-10-16T03:24:29;8.47;;;5.90;;
6832;SDS011;3454;42.654;23.378;2022-10-16T03:26:54;10.83;;;5.40;;
6832;SDS011;3454;42.654;23.378;2022-10-16T03:29:20;6.30;;;4.87;;
6832;SDS011;3454;42.654;23.378;2022-10-16T03:31:45;5.70;;;4.50;;
6832;SDS011;3454;42.654;23.378;2022-10-16T03:34:11;6.50;;;5.00;;
6832;SDS011;3454;42.654;23.378;2022-10-16T03:36:36;5.10;;;4.40;;
6832;SDS011;3454;42.654;23.378;2022-10-16T03:39:02;8.43;;;4.60;;
6832;SDS011;3454;42.654;23.378;2022-10-16T03:41:27;6.33;;;4.90;;
6832;SDS011;3454;42.654;23.378;2022-10-16T03:43:53;10.70;;;7.37;;
6832;SDS011;3454;42.654;23.378;2022-10-16T03:46:18;6.00;;;5.13;;
6832;SDS011;3454;42.654;23.378;2022-10-16T03:48:44;5.33;;;4.83;;
6832;SDS011;3454;42.654;23.378;2022-10-16T03:51:09;8.63;;;6.03;;
6832;SDS011;3454;42.654;23.378;2022-10-16T03:53:34;7.17;;;4.70;;
6832;SDS011;3454;42.654;23.378;2022-10-16T03:56:00;5.30;;;4.40;;
6832;SDS011;3454;42.654;23.378;2022-10-16T03:58:26;6.90;;;5.10;;
6832;SDS011;3454;42.654;23.378;2022-10-16T04:00:51;7.27;;;4.73;;
6832;SDS011;3454;42.654;23.378;2022-10-16T04:03:17;7.77;;;5.30;;
6832;SDS011;3454;42.654;23.378;2022-10-16T04:05:44;11.17;;;4.70;;
6832;SDS011;3454;42.654;23.378;2022-10-16T04:08:09;8.27;;;5.03;;
6832;SDS011;3454;42.654;23.378;2022-10-16T04:10:35;10.50;;;4.87;;
6832;SDS011;3454;42.654;23.378;2022-10-16T04:13:00;7.03;;;5.23;;
6832;SDS011;3454;42.654;23.378;2022-10-16T04:15:26;10.90;;;6.87;;
6832;SDS011;3454;42.654;23.378;2022-10-16T04:17:51;8.27;;;5.23;;
6832;SDS011;3454;42.654;23.378;2022-10-16T04:20:17;7.83;;;5.00;;
6832;SDS011;3454;42.654;23.378;2022-10-16T04:22:43;8.77;;;5.87;;
6832;SDS011;3454;42.654;23.378;2022-10-16T04:25:09;9.63;;;5.77;;
6832;SDS011;3454;42.654;23.378;2022-10-16T04:27:36;7.77;;;5.93;;
6832;SDS011;3454;42.654;23.378;2022-10-16T04:30:01;8.10;;;5.53;;
6832;SDS011;3454;42.654;23.378;2022-10-16T04:32:27;9.67;;;5.93;;
6832;SDS011;3454;42.654;23.378;2022-10-16T04:34:53;9.83;;;6.57;;
6832;SDS011;3454;42.654;23.378;2022-10-16T04:37:18;8.87;;;6.00;;
6832;SDS011;3454;42.654;23.378;2022-10-16T04:39:44;9.73;;;5.90;;
6832;SDS011;3454;42.654;23.378;2022-10-16T04:42:10;12.37;;;6.67;;
6832;SDS011;3454;42.654;23.378;2022-10-16T04:44:35;8.20;;;5.50;;
6832;SDS011;3454;42.654;23.378;2022-10-16T04:47:01;8.57;;;5.80;;
6832;SDS011;3454;42.654;23.378;2022-10-16T04:49:26;6.73;;;5.13;;
6832;SDS011;3454;42.654;23.378;2022-10-16T04:51:51;7.73;;;5.90;;
6832;SDS011;3454;42.654;23.378;2022-10-16T04:54:17;8.13;;;5.60;;
6832;SDS011;3454;42.654;23.378;2022-10-16T04:56:42;9.97;;;6.30;;
6832;SDS011;3454;42.654;23.378;2022-10-16T04:59:12;8.63;;;6.33;;
6832;SDS011;3454;42.654;23.378;2022-10-16T05:01:39;9.43;;;5.67;;
6832;SDS011;3454;42.654;23.378;2022-10-16T05:04:04;7.07;;;5.50;;
6832;SDS011;3454;42.654;23.378;2022-10-16T05:06:30;6.93;;;5.57;;
6832;SDS011;3454;42.654;23.378;2022-10-16T05:08:55;7.43;;;5.80;;
6832;SDS011;3454;42.654;23.378;2022-10-16T05:11:21;7.13;;;6.00;;
6832;SDS011;3454;42.654;23.378;2022-10-16T05:13:46;14.40;;;6.50;;
6832;SDS011;3454;42.654;23.378;2022-10-16T05:16:12;11.60;;;5.80;;
6832;SDS011;3454;42.654;23.378;2022-10-16T05:18:37;7.50;;;5.23;;
6832;SDS011;3454;42.654;23.378;2022-10-16T05:21:03;9.90;;;6.20;;
6832;SDS011;3454;42.654;23.378;2022-10-16T05:23:28;6.40;;;5.53;;
6832;SDS011;3454;42.654;23.378;2022-10-16T05:25:57;11.67;;;5.23;;
6832;SDS011;3454;42.654;23.378;2022-10-16T05:28:25;7.00;;;5.03;;
6832;SDS011;3454;42.654;23.378;2022-10-16T05:30:51;5.80;;;4.63;;
6832;SDS011;3454;42.654;23.378;2022-10-16T05:33:16;6.17;;;4.30;;
6832;SDS011;3454;42.654;23.378;2022-10-16T05:35:42;6.60;;;4.63;;
6832;SDS011;3454;42.654;23.378;2022-10-16T05:38:09;11.40;;;4.77;;
6832;SDS011;3454;42.654;23.378;2022-10-16T05:40:34;6.20;;;5.03;;
6832;SDS011;3454;42.654;23.378;2022-10-16T05:43:00;8.30;;;5.13;;
6832;SDS011;3454;42.654;23.378;2022-10-16T05:45:26;7.40;;;4.73;;
6832;SDS011;3454;42.654;23.378;2022-10-16T05:47:51;8.10;;;4.80;;
6832;SDS011;3454;42.654;23.378;2022-10-16T05:50:17;6.17;;;4.80;;
6832;SDS011;3454;42.654;23.378;2022-10-16T05:52:42;8.90;;;5.33;;
6832;SDS011;3454;42.654;23.378;2022-10-16T05:55:08;7.27;;;4.90;;
6832;SDS011;3454;42.654;23.378;2022-10-16T05:57:33;5.43;;;4.47;;
6832;SDS011;3454;42.654;23.378;2022-10-16T05:59:59;6.27;;;4.60;;
6832;SDS011;3454;42.654;23.378;2022-10-16T06:02:24;5.50;;;4.90;;
6832;SDS011;3454;42.654;23.378;2022-10-16T06:04:51;5.83;;;4.60;;
6832;SDS011;3454;42.654;23.378;2022-10-16T06:07:18;4.97;;;4.17;;
6832;SDS011;3454;42.654;23.378;2022-10-16T06:09:44;6.00;;;4.27;;
6832;SDS011;3454;42.654;23.378;2022-10-16T06:12:12;7.10;;;4.73;;
6832;SDS011;3454;42.654;23.378;2022-10-16T06:14:37;6.00;;;4.77;;
6832;SDS011;3454;42.654;23.378;2022-10-16T06:17:03;7.23;;;5.50;;
6832;SDS011;3454;42.654;23.378;2022-10-16T06:19:28;8.97;;;5.10;;
6832;SDS011;3454;42.654;23.378;2022-10-16T06:21:54;8.10;;;5.33;;
6832;SDS011;3454;42.654;23.378;2022-10-16T06:24:19;8.80;;;5.53;;
6832;SDS011;3454;42.654;23.378;2022-10-16T06:26:45;6.70;;;5.17;;
6832;SDS011;3454;42.654;23.378;2022-10-16T06:29:10;6.47;;;5.30;;
6832;SDS011;3454;42.654;23.378;2022-10-16T06:31:36;7.57;;;5.53;;
6832;SDS011;3454;42.654;23.378;2022-10-16T06:34:01;8.87;;;5.13;;
6832;SDS011;3454;42.654;23.378;2022-10-16T06:36:28;8.10;;;5.03;;
6832;SDS011;3454;42.654;23.378;2022-10-16T06:38:53;7.20;;;4.93;;
6832;SDS011;3454;42.654;23.378;2022-10-16T06:41:20;7.80;;;5.17;;
6832;SDS011;3454;42.654;23.378;2022-10-16T06:43:47;8.93;;;4.73;;
6832;SDS011;3454;42.654;23.378;2022-10-16T06:46:13;10.60;;;6.03;;
6832;SDS011;3454;42.654;23.378;2022-10-16T06:48:40;8.80;;;6.27;;
6832;SDS011;3454;42.654;23.378;2022-10-16T06:51:09;7.57;;;5.33;;
6832;SDS011;3454;42.654;23.378;2022-10-16T06:53:37;11.37;;;6.20;;
6832;SDS011;3454;42.654;23.378;2022-10-16T06:56:09;9.20;;;5.53;;
6832;SDS011;3454;42.654;23.378;2022-10-16T06:58:36;8.50;;;5.83;;
6832;SDS011;3454;42.654;23.378;2022-10-16T07:01:02;10.80;;;5.97;;
6832;SDS011;3454;42.654;23.378;2022-10-16T07:03:28;7.67;;;5.93;;
6832;SDS011;3454;42.654;23.378;2022-10-16T07:05:53;10.40;;;6.30;;
6832;SDS011;3454;42.654;23.378;2022-10-16T07:08:19;8.60;;;6.30;;
6832;SDS011;3454;42.654;23.378;2022-10-16T07:10:44;10.03;;;6.87;;
6832;SDS011;3454;42.654;23.378;2022-10-16T07:13:10;14.90;;;6.97;;
6832;SDS011;3454;42.654;23.378;2022-10-16T07:15:38;7.97;;;6.27;;
6832;SDS011;3454;42.654;23.378;2022-10-16T07:18:04;10.70;;;6.77;;
6832;SDS011;3454;42.654;23.378;2022-10-16T07:20:29;10.27;;;6.93;;
6832;SDS011;3454;42.654;23.378;2022-10-16T07:22:55;11.73;;;7.30;;
6832;SDS011;3454;42.654;23.378;2022-10-16T07:25:20;10.27;;;7.03;;
6832;SDS011;3454;42.654;23.378;2022-10-16T07:27:45;11.73;;;7.60;;
6832;SDS011;3454;42.654;23.378;2022-10-16T07:30:11;13.13;;;7.20;;
6832;SDS011;3454;42.654;23.378;2022-10-16T07:32:36;12.53;;;6.90;;
6832;SDS011;3454;42.654;23.378;2022-10-16T07:35:02;12.87;;;7.07;;
6832;SDS011;3454;42.654;23.378;2022-10-16T07:37:34;13.73;;;7.17;;
6832;SDS011;3454;42.654;23.378;2022-10-16T07:40:00;12.70;;;7.33;;
6832;SDS011;3454;42.654;23.378;2022-10-16T07:42:26;16.73;;;8.00;;
6832;SDS011;3454;42.654;23.378;2022-10-16T07:44:52;13.97;;;7.63;;
6832;SDS011;3454;42.654;23.378;2022-10-16T07:47:17;10.97;;;7.13;;
6832;SDS011;3454;42.654;23.378;2022-10-16T07:49:43;11.00;;;7.50;;
6832;SDS011;3454;42.654;23.378;2022-10-16T07:52:08;7.97;;;6.33;;
6832;SDS011;3454;42.654;23.378;2022-10-16T07:54:34;11.10;;;6.57;;
6832;SDS011;3454;42.654;23.378;2022-10-16T07:56:59;9.37;;;5.83;;
6832;SDS011;3454;42.654;23.378;2022-10-16T07:59:25;8.68;;;6.40;;
6832;SDS011;3454;42.654;23.378;2022-10-16T08:01:50;10.55;;;6.22;;
6832;SDS011;3454;42.654;23.378;2022-10-16T08:04:15;11.00;;;5.90;;
6832;SDS011;3454;42.654;23.378;2022-10-16T08:06:41;7.90;;;6.13;;
6832;SDS011;3454;42.654;23.378;2022-10-16T08:09:07;10.45;;;6.03;;
6832;SDS011;3454;42.654;23.378;2022-10-16T08:11:33;5.67;;;5.03;;
6832;SDS011;3454;42.654;23.378;2022-10-16T08:13:59;11.90;;;6.63;;
6832;SDS011;3454;42.654;23.378;2022-10-16T08:16:24;6.88;;;5.32;;
6832;SDS011;3454;42.654;23.378;2022-10-16T08:18:50;13.15;;;5.80;;
6832;SDS011;3454;42.654;23.378;2022-10-16T08:21:17;10.63;;;5.40;;
6832;SDS011;3454;42.654;23.378;2022-10-16T08:23:44;9.50;;;6.05;;
6832;SDS011;3454;42.654;23.378;2022-10-16T08:26:10;6.90;;;4.90;;
6832;SDS011;3454;42.654;23.378;2022-10-16T08:28:36;11.70;;;5.70;;
6832;SDS011;3454;42.654;23.378;2022-10-16T08:31:08;6.97;;;5.15;;
6832;SDS011;3454;42.654;23.378;2022-10-16T08:33:38;7.93;;;4.63;;
6832;SDS011;3454;42.654;23.378;2022-10-16T08:36:05;6.97;;;4.55;;
6832;SDS011;3454;42.654;23.378;2022-10-16T08:38:31;6.88;;;4.43;;
6832;SDS011;3454;42.654;23.378;2022-10-16T08:41:03;7.55;;;5.50;;
6832;SDS011;3454;42.654;23.378;2022-10-16T08:48:47;8.25;;;4.53;;
6832;SDS011;3454;42.654;23.378;2022-10-16T08:51:23;6.53;;;4.13;;
6832;SDS011;3454;42.654;23.378;2022-10-16T08:53:58;8.00;;;4.10;;
6832;SDS011;3454;42.654;23.378;2022-10-16T08:56:26;4.22;;;3.83;;
6832;SDS011;3454;42.654;23.378;2022-10-16T08:58:52;7.78;;;3.45;;
6832;SDS011;3454;42.654;23.378;2022-10-16T09:01:20;6.13;;;4.45;;
6832;SDS011;3454;42.654;23.378;2022-10-16T09:12:19;3.70;;;3.33;;
6832;SDS011;3454;42.654;23.378;2022-10-16T09:15:03;7.05;;;3.28;;
6832;SDS011;3454;42.654;23.378;2022-10-16T09:17:46;4.68;;;3.42;;
6832;SDS011;3454;42.654;23.378;2022-10-16T09:22:48;3.42;;;2.85;;
6832;SDS011;3454;42.654;23.378;2022-10-16T09:25:28;4.55;;;2.90;;
6832;SDS011;3454;42.654;23.378;2022-10-16T09:27:55;7.43;;;3.50;;
6832;SDS011;3454;42.654;23.378;2022-10-16T09:30:21;3.63;;;3.15;;
6832;SDS011;3454;42.654;23.378;2022-10-16T09:32:47;5.03;;;3.72;;
6832;SDS011;3454;42.654;23.378;2022-10-16T09:35:18;4.75;;;3.28;;
6832;SDS011;3454;42.654;23.378;2022-10-16T09:37:47;4.40;;;3.08;;
6832;SDS011;3454;42.654;23.378;2022-10-16T09:40:24;6.10;;;3.05;;
6832;SDS011;3454;42.654;23.378;2022-10-16T09:48:57;4.28;;;2.67;;
6832;SDS011;3454;42.654;23.378;2022-10-16T09:51:28;4.07;;;2.97;;
6832;SDS011;3454;42.654;23.378;2022-10-16T09:53:59;4.05;;;2.92;;
6832;SDS011;3454;42.654;23.378;2022-10-16T09:56:31;6.18;;;2.50;;
6832;SDS011;3454;42.654;23.378;2022-10-16T09:59:02;5.05;;;3.03;;
6832;SDS011;3454;42.654;23.378;2022-10-16T10:01:36;3.22;;;2.70;;
6832;SDS011;3454;42.654;23.378;2022-10-16T10:04:05;4.88;;;2.83;;
6832;SDS011;3454;42.654;23.378;2022-10-16T10:06:53;4.68;;;2.78;;
6832;SDS011;3454;42.654;23.378;2022-10-16T10:12:04;4.97;;;3.30;;
6832;SDS011;3454;42.654;23.378;2022-10-16T10:14:52;3.75;;;3.00;;
6832;SDS011;3454;42.654;23.378;2022-10-16T10:17:19;4.55;;;2.78;;
6832;SDS011;3454;42.654;23.378;2022-10-16T10:22:16;4.22;;;2.85;;
6832;SDS011;3454;42.654;23.378;2022-10-16T10:24:43;7.57;;;2.90;;
6832;SDS011;3454;42.654;23.378;2022-10-16T10:27:11;3.35;;;2.95;;
6832;SDS011;3454;42.654;23.378;2022-10-16T10:32:19;3.15;;;2.83;;
6832;SDS011;3454;42.654;23.378;2022-10-16T10:45:57;3.70;;;2.70;;
6832;SDS011;3454;42.654;23.378;2022-10-16T10:48:33;3.92;;;3.40;;
6832;SDS011;3454;42.654;23.378;2022-10-16T10:54:16;2.90;;;2.40;;
6832;SDS011;3454;42.654;23.378;2022-10-16T10:56:51;2.85;;;2.38;;
6832;SDS011;3454;42.654;23.378;2022-10-16T10:59:37;2.83;;;1.85;;
6832;SDS011;3454;42.654;23.378;2022-10-16T11:07:55;2.85;;;2.17;;
6832;SDS011;3454;42.654;23.378;2022-10-16T11:10:38;2.55;;;1.85;;
6832;SDS011;3454;42.654;23.378;2022-10-16T11:15:44;3.42;;;2.35;;
6832;SDS011;3454;42.654;23.378;2022-10-16T11:20:50;3.25;;;1.80;;
6832;SDS011;3454;42.654;23.378;2022-10-16T11:26:11;2.10;;;1.90;;
6832;SDS011;3454;42.654;23.378;2022-10-16T11:28:50;4.35;;;2.10;;
6832;SDS011;3454;42.654;23.378;2022-10-16T11:36:39;2.40;;;2.20;;
6832;SDS011;3454;42.654;23.378;2022-10-16T11:39:24;2.70;;;1.90;;
6832;SDS011;3454;42.654;23.378;2022-10-16T11:44:57;3.58;;;2.30;;
6832;SDS011;3454;42.654;23.378;2022-10-16T11:55:29;2.15;;;1.95;;
6832;SDS011;3454;42.654;23.378;2022-10-16T11:58:01;3.53;;;2.22;;
6832;SDS011;3454;42.654;23.378;2022-10-16T12:00:40;4.15;;;2.60;;
6832;SDS011;3454;42.654;23.378;2022-10-16T12:06:24;3.65;;;2.13;;
6832;SDS011;3454;42.654;23.378;2022-10-16T12:08:57;3.60;;;2.28;;
6832;SDS011;3454;42.654;23.378;2022-10-16T12:16:59;6.32;;;2.40;;
6832;SDS011;3454;42.654;23.378;2022-10-16T12:19:28;7.57;;;2.50;;
6832;SDS011;3454;42.654;23.378;2022-10-16T12:21:58;3.40;;;2.30;;
6832;SDS011;3454;42.654;23.378;2022-10-16T12:26:56;4.15;;;2.20;;
6832;SDS011;3454;42.654;23.378;2022-10-16T12:31:53;4.07;;;1.60;;
6832;SDS011;3454;42.654;23.378;2022-10-16T12:34:21;5.78;;;2.17;;
6832;SDS011;3454;42.654;23.378;2022-10-16T12:36:51;2.22;;;2.03;;
6832;SDS011;3454;42.654;23.378;2022-10-16T12:39:21;3.28;;;1.88;;
6832;SDS011;3454;42.654;23.378;2022-10-16T12:41:48;3.63;;;2.30;;
6832;SDS011;3454;42.654;23.378;2022-10-16T12:44:26;2.85;;;2.22;;
6832;SDS011;3454;42.654;23.378;2022-10-16T12:46:57;6.78;;;2.20;;
6832;SDS011;3454;42.654;23.378;2022-10-16T12:49:31;2.60;;;2.10;;
6832;SDS011;3454;42.654;23.378;2022-10-16T12:52:00;4.00;;;2.58;;
6832;SDS011;3454;42.654;23.378;2022-10-16T12:57:10;4.85;;;2.38;;
6832;SDS011;3454;42.654;23.378;2022-10-16T13:05:34;3.80;;;2.28;;
6832;SDS011;3454;42.654;23.378;2022-10-16T13:08:26;2.15;;;1.92;;
6832;SDS011;3454;42.654;23.378;2022-10-16T13:29:52;2.55;;;2.20;;
6832;SDS011;3454;42.654;23.378;2022-10-16T13:32:25;2.85;;;2.10;;
6832;SDS011;3454;42.654;23.378;2022-10-16T13:34:52;3.13;;;2.25;;
6832;SDS011;3454;42.654;23.378;2022-10-16T13:37:19;2.38;;;2.17;;
6832;SDS011;3454;42.654;23.378;2022-10-16T13:39:47;2.92;;;1.95;;
6832;SDS011;3454;42.654;23.378;2022-10-16T13:42:21;3.80;;;2.45;;
6832;SDS011;3454;42.654;23.378;2022-10-16T13:44:51;3.63;;;2.15;;
6832;SDS011;3454;42.654;23.378;2022-10-16T13:47:25;2.80;;;2.13;;
6832;SDS011;3454;42.654;23.378;2022-10-16T13:50:25;3.70;;;2.10;;
6832;SDS011;3454;42.654;23.378;2022-10-16T13:52:44;2.65;;;2.10;;
6832;SDS011;3454;42.654;23.378;2022-10-16T13:55:18;3.25;;;2.10;;
6832;SDS011;3454;42.654;23.378;2022-10-16T13:57:44;2.20;;;2.00;;
6832;SDS011;3454;42.654;23.378;2022-10-16T14:00:23;4.13;;;2.15;;
6832;SDS011;3454;42.654;23.378;2022-10-16T14:02:59;8.98;;;2.15;;
6832;SDS011;3454;42.654;23.378;2022-10-16T14:05:30;2.10;;;1.90;;
6832;SDS011;3454;42.654;23.378;2022-10-16T14:07:56;2.25;;;1.92;;
6832;SDS011;3454;42.654;23.378;2022-10-16T14:10:25;2.55;;;2.35;;
6832;SDS011;3454;42.654;23.378;2022-10-16T14:13:17;3.17;;;2.20;;
6832;SDS011;3454;42.654;23.378;2022-10-16T14:15:45;2.15;;;1.90;;
6832;SDS011;3454;42.654;23.378;2022-10-16T14:18:18;3.20;;;2.35;;
6832;SDS011;3454;42.654;23.378;2022-10-16T14:20:47;5.30;;;2.75;;
6832;SDS011;3454;42.654;23.378;2022-10-16T14:23:22;3.75;;;2.67;;
6832;SDS011;3454;42.654;23.378;2022-10-16T14:25:53;4.93;;;2.58;;
6832;SDS011;3454;42.654;23.378;2022-10-16T14:28:20;2.25;;;2.05;;
6832;SDS011;3454;42.654;23.378;2022-10-16T14:30:57;2.47;;;2.22;;
6832;SDS011;3454;42.654;23.378;2022-10-16T14:38:39;3.40;;;2.00;;
6832;SDS011;3454;42.654;23.378;2022-10-16T14:41:07;2.72;;;1.88;;
6832;SDS011;3454;42.654;23.378;2022-10-16T14:43:37;3.85;;;2.40;;
6832;SDS011;3454;42.654;23.378;2022-10-16T14:46:14;3.38;;;2.40;;
6832;SDS011;3454;42.654;23.378;2022-10-16T14:48:46;4.07;;;3.15;;
6832;SDS011;3454;42.654;23.378;2022-10-16T14:51:14;7.13;;;2.40;;
6832;SDS011;3454;42.654;23.378;2022-10-16T14:53:41;3.92;;;2.13;;
6832;SDS011;3454;42.654;23.378;2022-10-16T14:56:07;3.92;;;2.30;;
6832;SDS011;3454;42.654;23.378;2022-10-16T14:58:39;2.95;;;2.10;;
6832;SDS011;3454;42.654;23.378;2022-10-16T15:01:05;3.60;;;2.10;;
6832;SDS011;3454;42.654;23.378;2022-10-16T15:03:31;5.50;;;2.55;;
6832;SDS011;3454;42.654;23.378;2022-10-16T15:05:57;6.05;;;2.55;;
6832;SDS011;3454;42.654;23.378;2022-10-16T15:08:23;5.03;;;2.40;;
6832;SDS011;3454;42.654;23.378;2022-10-16T15:10:48;3.03;;;2.35;;
6832;SDS011;3454;42.654;23.378;2022-10-16T15:13:14;7.38;;;2.58;;
6832;SDS011;3454;42.654;23.378;2022-10-16T15:15:43;7.30;;;2.50;;
6832;SDS011;3454;42.654;23.378;2022-10-16T15:18:10;3.90;;;2.25;;
6832;SDS011;3454;42.654;23.378;2022-10-16T15:20:36;5.05;;;2.30;;
6832;SDS011;3454;42.654;23.378;2022-10-16T15:23:10;3.85;;;2.35;;
6832;SDS011;3454;42.654;23.378;2022-10-16T15:25:46;2.30;;;2.10;;
6832;SDS011;3454;42.654;23.378;2022-10-16T15:28:15;4.38;;;3.30;;
6832;SDS011;3454;42.654;23.378;2022-10-16T15:30:42;2.92;;;2.42;;
6832;SDS011;3454;42.654;23.378;2022-10-16T15:33:14;3.35;;;2.20;;
6832;SDS011;3454;42.654;23.378;2022-10-16T15:35:41;2.80;;;1.92;;
6832;SDS011;3454;42.654;23.378;2022-10-16T15:38:11;4.68;;;2.25;;
6832;SDS011;3454;42.654;23.378;2022-10-16T15:40:38;4.35;;;2.22;;
6832;SDS011;3454;42.654;23.378;2022-10-16T15:43:03;6.63;;;2.50;;
6832;SDS011;3454;42.654;23.378;2022-10-16T15:45:29;4.25;;;2.20;;
6832;SDS011;3454;42.654;23.378;2022-10-16T15:47:54;4.15;;;2.55;;
6832;SDS011;3454;42.654;23.378;2022-10-16T15:50:20;3.15;;;2.50;;
6832;SDS011;3454;42.654;23.378;2022-10-16T15:52:45;4.75;;;3.08;;
6832;SDS011;3454;42.654;23.378;2022-10-16T15:55:12;5.15;;;2.75;;
6832;SDS011;3454;42.654;23.378;2022-10-16T15:57:39;4.03;;;2.75;;
6832;SDS011;3454;42.654;23.378;2022-10-16T16:00:10;6.45;;;2.78;;
6832;SDS011;3454;42.654;23.378;2022-10-16T16:02:38;4.40;;;3.42;;
6832;SDS011;3454;42.654;23.378;2022-10-16T16:05:04;6.00;;;2.92;;
6832;SDS011;3454;42.654;23.378;2022-10-16T16:07:36;6.55;;;2.88;;
6832;SDS011;3454;42.654;23.378;2022-10-16T16:10:03;3.67;;;3.00;;
6832;SDS011;3454;42.654;23.378;2022-10-16T16:12:30;5.40;;;3.75;;
6832;SDS011;3454;42.654;23.378;2022-10-16T16:14:55;8.75;;;4.07;;
6832;SDS011;3454;42.654;23.378;2022-10-16T16:17:21;5.90;;;3.65;;
6832;SDS011;3454;42.654;23.378;2022-10-16T16:19:46;5.50;;;3.85;;
6832;SDS011;3454;42.654;23.378;2022-10-16T16:22:12;6.32;;;3.83;;
6832;SDS011;3454;42.654;23.378;2022-10-16T16:24:37;12.05;;;4.55;;
6832;SDS011;3454;42.654;23.378;2022-10-16T16:27:03;10.68;;;4.07;;
6832;SDS011;3454;42.654;23.378;2022-10-16T16:29:28;9.10;;;3.85;;
6832;SDS011;3454;42.654;23.378;2022-10-16T16:31:54;5.05;;;4.05;;
6832;SDS011;3454;42.654;23.378;2022-10-16T16:34:23;10.65;;;4.78;;
6832;SDS011;3454;42.654;23.378;2022-10-16T16:36:50;13.75;;;4.30;;
6832;SDS011;3454;42.654;23.378;2022-10-16T16:39:16;9.07;;;5.30;;
6832;SDS011;3454;42.654;23.378;2022-10-16T16:41:42;7.97;;;5.20;;
6832;SDS011;3454;42.654;23.378;2022-10-16T16:44:08;10.40;;;4.95;;
6832;SDS011;3454;42.654;23.378;2022-10-16T16:46:35;11.05;;;4.50;;
6832;SDS011;3454;42.654;23.378;2022-10-16T16:49:01;8.27;;;4.50;;
6832;SDS011;3454;42.654;23.378;2022-10-16T16:51:35;7.57;;;5.38;;
6832;SDS011;3454;42.654;23.378;2022-10-16T16:54:40;9.00;;;5.07;;
6832;SDS011;3454;42.654;23.378;2022-10-16T16:57:07;8.70;;;5.28;;
6832;SDS011;3454;42.654;23.378;2022-10-16T16:59:36;12.07;;;6.40;;
6832;SDS011;3454;42.654;23.378;2022-10-16T17:02:01;15.23;;;5.95;;
6832;SDS011;3454;42.654;23.378;2022-10-16T17:04:28;10.90;;;6.50;;
6832;SDS011;3454;42.654;23.378;2022-10-16T17:06:54;18.00;;;8.93;;
6832;SDS011;3454;42.654;23.378;2022-10-16T17:09:20;24.75;;;7.10;;
6832;SDS011;3454;42.654;23.378;2022-10-16T17:11:46;10.88;;;6.57;;
6832;SDS011;3454;42.654;23.378;2022-10-16T17:14:13;14.82;;;6.93;;
6832;SDS011;3454;42.654;23.378;2022-10-16T17:16:39;9.57;;;6.47;;
6832;SDS011;3454;42.654;23.378;2022-10-16T17:19:10;11.05;;;6.15;;
6832;SDS011;3454;42.654;23.378;2022-10-16T17:21:38;9.77;;;5.77;;
6832;SDS011;3454;42.654;23.378;2022-10-16T17:24:03;11.05;;;5.97;;